Cosco Kaohsiung — VREM3 — position and weather

sailwx.info

Track history (hours):
 
Tides and Currents Weather Stations Pressure Air Temp Water Temp Dewpoint Dewpoint Depression Visibility Wind Speed Wind Dir Waves Ship Positions

Cosco Kaohsiung

Last reported at 2017-Jul-27 18:30 UTC. Time now 2017-Jul-27 18:36 UTC.
Position N 31°39' E 122°56'.

Length 349 m; draft 9.7 m.

Type: Ship (hazmat cat A). MMSI: 477136800.

Date/timePositionNaut miles runAvg speedWind from/ knotsBaromVisibWave heightAir tempDewpointWater temp
2017-Jul-27 18:30N 31°39' E 122°56'3 6.0
2017-Jul-27 18:00N 31°42' E 122°56'3 6.4
2017-Jul-27 17:30N 31°45' E 122°56'3 6.3
2017-Jul-27 17:00N 31°48' E 122°56'3 6.5
2017-Jul-27 16:29N 31°52' E 122°56'3 6.4
2017-Jul-27 15:58N 31°55' E 122°55'3 6.1
2017-Jul-27 15:30N 31°58' E 122°55'3 6.4
2017-Jul-27 14:58N 32°01' E 122°55'7 7.2
2017-Jul-27 14:00N 32°08' E 122°55'4 8.0
2017-Jul-27 13:30N 32°12' E 122°55'4 8.4
2017-Jul-27 13:00N 32°17' E 122°55'4 8.4
2017-Jul-27 12:30N 32°21' E 122°55'4 8.2
2017-Jul-27 12:00N 32°25' E 122°55'6 7.9
2017-Jul-27 11:17N 32°31' E 122°55'3 8.0
2017-Jul-27 10:54N 32°34' E 122°55'4 8.6
2017-Jul-27 10:29N 32°37' E 122°55'5 9.1
2017-Jul-27 09:56N 32°42' E 122°55'5 8.8
2017-Jul-27 09:21N 32°47' E 122°55'3 8.9
2017-Jul-27 09:00N 32°51' E 122°55'8 8.4
2017-Jul-27 08:03N 32°59' E 122°55'1 8.2
2017-Jul-27 07:59N 32°59' E 122°55'4 7.8
2017-Jul-27 07:30N 33°03' E 122°54'4 7.8
2017-Jul-27 07:00N 33°07' E 122°54'64 8.5
2017-Jul-26 23:25N 34°10' E 122°44'5 9.8
2017-Jul-26 22:57N 34°14' E 122°41'510.1
2017-Jul-26 22:30N 34°18' E 122°37'9 9.6
2017-Jul-26 21:31N 34°25' E 122°31'010.0
2017-Jul-26 21:29N 34°25' E 122°30'97 9.7
2017-Jul-26 11:26N 34°51' E 120°37'5 9.9
2017-Jul-26 10:58N 34°52' E 120°31'4 9.6
2017-Jul-26 10:30N 34°52' E 120°26'5 9.6
2017-Jul-26 10:00N 34°52' E 120°20'5 9.2
2017-Jul-26 09:30N 34°52' E 120°14'5 9.3
2017-Jul-26 09:00N 34°52' E 120°09'9 9.4
2017-Jul-26 08:03N 34°52' E 119°58'0 9.8
2017-Jul-26 08:00N 34°52' E 119°57'510.5
2017-Jul-26 07:29N 34°52' E 119°50'1411.3
2017-Jul-26 06:15N 34°46' E 119°35'311.1
2017-Jul-26 06:00N 34°45' E 119°32'14 1.1
2017-Jul-25 17:25N 34°52' E 119°47'612.2
2017-Jul-25 16:57N 34°55' E 119°53'21811.1
2017-Jul-24 21:21N 37°38' E 122°52'617.7
2017-Jul-24 21:00N 37°43' E 122°46'918.3
2017-Jul-24 20:30N 37°51' E 122°40'1119.0
2017-Jul-24 19:54N 38°01' E 122°34'819.1
2017-Jul-24 19:29N 38°08' E 122°29'1119.0
2017-Jul-24 18:54N 38°18' E 122°22'1119.0
2017-Jul-24 18:20N 38°27' E 122°15'618.9
2017-Jul-24 18:01N 38°32' E 122°11'918.8
2017-Jul-24 17:30N 38°40' E 122°05'918.6
2017-Jul-24 17:01N 38°48' E 121°59'816.1
2017-Jul-24 16:30N 38°56' E 121°56'1 0.1
2017-Jul-23 20:55N 38°56' E 121°57'3 7.2
2017-Jul-23 20:30N 38°53' E 121°57'1 2.1
2017-Jul-23 20:00N 38°52' E 121°57'2 5.0
2017-Jul-23 19:30N 38°50' E 121°58'816.2
2017-Jul-23 18:59N 38°43' E 122°05'611.2
2017-Jul-23 18:28N 38°39' E 122°09'817.9
2017-Jul-23 18:00N 38°31' E 122°14'918.5
2017-Jul-23 17:30N 38°23' E 122°19'918.7
2017-Jul-23 17:00N 38°15' E 122°24'918.7
2017-Jul-23 16:30N 38°07' E 122°30'918.4
2017-Jul-23 16:00N 37°59' E 122°37'918.3
2017-Jul-23 15:30N 37°53' E 122°46'918.3
2017-Jul-23 15:00N 37°47' E 122°55'918.4
2017-Jul-23 14:30N 37°41' E 123°03'24518.5
2017-Jul-23 01:16N 34°06' E 125°29'518.8
2017-Jul-23 01:00N 34°04' E 125°34'2318.3
2017-Jul-22 23:46N 33°56' E 125°60'518.3
2017-Jul-22 23:28N 33°54' E 126°06'817.4
2017-Jul-22 22:59N 33°51' E 126°15'3416.6
2017-Jul-22 20:55N 33°53' E 126°57'6016.2
2017-Jul-22 17:13N 34°13' E 128°05'416.4
2017-Jul-22 17:01N 34°14' E 128°09'916.7
2017-Jul-22 16:28N 34°17' E 128°19'1216.3
2017-Jul-22 15:44N 34°20' E 128°33'516.9
2017-Jul-22 15:26N 34°23' E 128°37'1216.8
2017-Jul-22 14:45N 34°31' E 128°48'  
Track history (hours):
 
Tides and Currents Weather Stations Pressure Air Temp Water Temp Dewpoint Dewpoint Depression Visibility Wind Speed Wind Dir Waves Ship Positions

Cosco Kaohsiung

Last reported at 2017-Jul-27 18:30 UTC. Time now 2017-Jul-27 18:36 UTC.
Position N 31°39' E 122°56'.

Length 349 m; draft 9.7 m.

Type: Ship (hazmat cat A). MMSI: 477136800.

Date/timePositionNaut miles runAvg speedWind from/ knotsBaromVisibWave heightAir tempDewpointWater temp
2017-Jul-27 18:30N 31°39' E 122°56'3 6.0
2017-Jul-27 18:00N 31°42' E 122°56'3 6.4
2017-Jul-27 17:30N 31°45' E 122°56'3 6.3
2017-Jul-27 17:00N 31°48' E 122°56'3 6.5
2017-Jul-27 16:29N 31°52' E 122°56'3 6.4
2017-Jul-27 15:58N 31°55' E 122°55'3 6.1
2017-Jul-27 15:30N 31°58' E 122°55'3 6.4
2017-Jul-27 14:58N 32°01' E 122°55'7 7.2
2017-Jul-27 14:00N 32°08' E 122°55'4 8.0
2017-Jul-27 13:30N 32°12' E 122°55'4 8.4
2017-Jul-27 13:00N 32°17' E 122°55'4 8.4
2017-Jul-27 12:30N 32°21' E 122°55'4 8.2
2017-Jul-27 12:00N 32°25' E 122°55'6 7.9
2017-Jul-27 11:17N 32°31' E 122°55'3 8.0
2017-Jul-27 10:54N 32°34' E 122°55'4 8.6
2017-Jul-27 10:29N 32°37' E 122°55'5 9.1
2017-Jul-27 09:56N 32°42' E 122°55'5 8.8
2017-Jul-27 09:21N 32°47' E 122°55'3 8.9
2017-Jul-27 09:00N 32°51' E 122°55'8 8.4
2017-Jul-27 08:03N 32°59' E 122°55'1 8.2
2017-Jul-27 07:59N 32°59' E 122°55'4 7.8
2017-Jul-27 07:30N 33°03' E 122°54'4 7.8
2017-Jul-27 07:00N 33°07' E 122°54'64 8.5
2017-Jul-26 23:25N 34°10' E 122°44'5 9.8
2017-Jul-26 22:57N 34°14' E 122°41'510.1
2017-Jul-26 22:30N 34°18' E 122°37'9 9.6
2017-Jul-26 21:31N 34°25' E 122°31'010.0
2017-Jul-26 21:29N 34°25' E 122°30'97 9.7
2017-Jul-26 11:26N 34°51' E 120°37'5 9.9
2017-Jul-26 10:58N 34°52' E 120°31'4 9.6
2017-Jul-26 10:30N 34°52' E 120°26'5 9.6
2017-Jul-26 10:00N 34°52' E 120°20'5 9.2
2017-Jul-26 09:30N 34°52' E 120°14'5 9.3
2017-Jul-26 09:00N 34°52' E 120°09'9 9.4
2017-Jul-26 08:03N 34°52' E 119°58'0 9.8
2017-Jul-26 08:00N 34°52' E 119°57'510.5
2017-Jul-26 07:29N 34°52' E 119°50'1411.3
2017-Jul-26 06:15N 34°46' E 119°35'311.1
2017-Jul-26 06:00N 34°45' E 119°32'14 1.1
2017-Jul-25 17:25N 34°52' E 119°47'612.2
2017-Jul-25 16:57N 34°55' E 119°53'21811.1
2017-Jul-24 21:21N 37°38' E 122°52'617.7
2017-Jul-24 21:00N 37°43' E 122°46'918.3
2017-Jul-24 20:30N 37°51' E 122°40'1119.0
2017-Jul-24 19:54N 38°01' E 122°34'819.1
2017-Jul-24 19:29N 38°08' E 122°29'1119.0
2017-Jul-24 18:54N 38°18' E 122°22'1119.0
2017-Jul-24 18:20N 38°27' E 122°15'618.9
2017-Jul-24 18:01N 38°32' E 122°11'918.8
2017-Jul-24 17:30N 38°40' E 122°05'918.6
2017-Jul-24 17:01N 38°48' E 121°59'816.1
2017-Jul-24 16:30N 38°56' E 121°56'1 0.1
2017-Jul-23 20:55N 38°56' E 121°57'3 7.2
2017-Jul-23 20:30N 38°53' E 121°57'1 2.1
2017-Jul-23 20:00N 38°52' E 121°57'2 5.0
2017-Jul-23 19:30N 38°50' E 121°58'816.2
2017-Jul-23 18:59N 38°43' E 122°05'611.2
2017-Jul-23 18:28N 38°39' E 122°09'817.9
2017-Jul-23 18:00N 38°31' E 122°14'918.5
2017-Jul-23 17:30N 38°23' E 122°19'918.7
2017-Jul-23 17:00N 38°15' E 122°24'918.7
2017-Jul-23 16:30N 38°07' E 122°30'918.4
2017-Jul-23 16:00N 37°59' E 122°37'918.3
2017-Jul-23 15:30N 37°53' E 122°46'918.3
2017-Jul-23 15:00N 37°47' E 122°55'918.4
2017-Jul-23 14:30N 37°41' E 123°03'24518.5
2017-Jul-23 01:16N 34°06' E 125°29'518.8
2017-Jul-23 01:00N 34°04' E 125°34'2318.3
2017-Jul-22 23:46N 33°56' E 125°60'518.3
2017-Jul-22 23:28N 33°54' E 126°06'817.4
2017-Jul-22 22:59N 33°51' E 126°15'3416.6
2017-Jul-22 20:55N 33°53' E 126°57'6016.2
2017-Jul-22 17:13N 34°13' E 128°05'416.4
2017-Jul-22 17:01N 34°14' E 128°09'916.7
2017-Jul-22 16:28N 34°17' E 128°19'1216.3
2017-Jul-22 15:44N 34°20' E 128°33'516.9
2017-Jul-22 15:26N 34°23' E 128°37'1216.8
2017-Jul-22 14:45N 34°31' E 128°48'  

Dump ship's entire track history